Tiempo atmosférico en la estación meteorológica de Astorga, León (919 m.)



Fecha
DESCASC
Temp. máxima en grados centígrados (hora)
DESCASC
Temp. mínima en grados centígrados (hora)
DESCASC
Temp. media en grados centígrados
DESCASC
Racha de viento máxima en m/sg (hora)
DESCASC
Velocidad máxima media en intervalos de 10 minutos(hora)
DESCASC
Precipitaciones diarias en mm
DESCASC
Precipitaciones de 00:00 a 06:00 en mm
DESCASC
Precipitaciones de 06:00 a 12:00 en mm
DESCASC
Precipitaciones de 12:00 a 18:00 en mm
DESCASC
Precipitaciones de 18:00 a 24:00 en mm
DESCASC
31-03-2020 9.2 (14:20) -3 (03:00) 3.1 10.56 (16:20) 5.56 (16:50) 1.2 0 0 0.4 0.8
30-03-2020 7.6 (16:00) -2.4 (23:59) 2.6 13.33 (17:40) 10 (18:30) 0 0 0 0 0
29-03-2020 17.7 (17:10) -0.7 (-00:0) 8.5 10 (20:40) 6.67 (20:00) 0 0 0 0 0
28-03-2020 16.4 (15:50) -2.2 (-00:0) 7.1 5.83 (10:30) 3.89 (16:50) 0 0 0 0 0
27-03-2020 13.2 (16:20) -3.4 (-00:0) 4.9 10.28 (14:40) 6.11 (14:30) 0 0 0 0 0
26-03-2020 18.4 (16:40) 0 (00:00) 9.2 9.44 (21:30) 6.94 (20:50) 0 0 0 0 0
25-03-2020 21.3 (17:10) 1.2 (00:00) 11.2 10.28 (20:30) 6.67 (18:40) 0 0 0 0 0
24-03-2020 17.9 (17:40) 6.7 (00:00) 12.3 6.94 (09:30) 4.17 (09:10) 0 0 0 0 0
23-03-2020 15.8 (17:40) 0.8 (00:00) 8.3 7.5 (22:50) 4.17 (13:30) 0 0 0 0 0
22-03-2020 17.3 (15:50) 4.5 (05:00) 10.9 9.17 (16:40) 5 (16:20) 0.2 0 0 0.2 0
21-03-2020 13.6 (17:00) 6.7 (00:00) 10.2 5.83 (06:10) 3.06 (10:00) 0.2 0.2 0 0 0
20-03-2020 13 (15:00) 6.5 (00:00) 9.8 9.44 (16:40) 6.11 (16:40) 2.6 0.2 0.2 2.2 0
19-03-2020 18.4 (14:10) 6.1 (00:00) 12.2 7.5 (16:00) 5.28 (16:00) 0 0 0 0 0
18-03-2020 18.7 (15:00) 7.2 (00:00) 13 6.11 (16:20) 4.17 (16:20) 0 0 0 0 0
17-03-2020 16.3 (13:10) 4.7 (00:00) 10.5 10 (14:30) 5 (13:10) 0 0 0 0 0
16-03-2020 12.3 (15:50) 1.4 (00:00) 6.9 15.83 (16:50) 10.83 (14:00) 0 0 0 0 0
15-03-2020 16.9 (16:40) -1.3 (-00:0) 7.8 13.89 (18:50) 8.33 (19:00) 1.4 0 0 0 1.4
14-03-2020 18.1 (16:40) 0.2 (00:00) 9.2 6.67 (16:20) 4.44 (15:10) 0 0 0 0 0
13-03-2020 17.1 (17:20) 5.9 (23:50) 11.5 5.28 (15:50) 3.33 (18:00) 0 0 0 0 0
12-03-2020 20.6 (14:00) 7.1 (00:00) 13.9 5.83 (20:20) 4.17 (20:20) 0 0 0 0 0
11-03-2020 24.1 (17:40) 4.6 (00:00) 14.4 5 (00:40) 3.89 (00:30) 0 0 0 0 0
10-03-2020 23.2 (17:00) 4.4 (00:00) 13.8 8.89 (00:40) 5.28 (00:40) 0 0 0 0 0
09-03-2020 16.5 (15:00) 2.8 (00:00) 9.6 11.39 (00:30) 6.11 (15:30) 0 0 0 0 0
08-03-2020 13.7 (13:30) 1.8 (00:00) 7.7 11.67 (17:50) 8.06 (17:40) 0 0 0 0 0
07-03-2020 18.2 (17:00) 2.5 (00:00) 10.4 9.17 (10:20) 5.56 (09:50) 0 0 0 0 0
06-03-2020 8.4 (16:30) 1.4 (00:00) 4.9 17.5 (15:20) 10.83 (16:00) 1 0.8 0.2 0 0
05-03-2020 12.1 (14:30) 3.1 (00:00) 7.6 16.11 (12:20) 9.17 (12:20) 1.6 0 1 0.2 0.4
04-03-2020 15.7 (14:30) 9.8 (00:00) 12.8 12.22 (14:50) 6.11 (01:50) 0 0 0 0 0
03-03-2020 15.3 (13:50) 3.1 (00:00) 9.2 15.56 (12:10) 9.17 (14:00) 4.2 0.8 3.4 0 0

Gráficas

Temp. máximas Temp. mínimas Temp. medias Precipitaciones Rachas de viento máximas Velocidades máximas media en intervalos de 10 minutos

Datos horarios

Fecha y hora oficial Temperatura (ºC) Velocidad del viento (km/h) Dirección del viento Racha (km/h) Dirección de racha Precipitación (mm) Presión (hPa) Tendencia (hPa) Humedad (%)
2020-04-01 23:00:00 6.2 19 Norte 24 Norte 0.2 -- -- 92
2020-04-01 22:00:00 6.6 13 Norte 17 Norte 0 -- -- 89
2020-04-01 21:00:00 6.5 7 Noroeste 17 Sur 0 -- -- 91
2020-04-01 20:00:00 7.1 11 Sur 18 Sur 0.2 -- -- 87
2020-04-01 19:00:00 8.2 11 Sudoeste 45 Sur 0 -- -- 74
2020-04-01 18:00:00 9.7 25 Sur 44 Sur 0 -- -- 74
2020-04-01 17:00:00 14.1 11 Este 24 Este 0 -- -- 52
2020-04-01 16:00:00 13.8 11 Este 23 Este 0 -- -- 57
2020-04-01 15:00:00 11.3 5 Sudeste 18 Este 0 -- -- 61
2020-04-01 14:00:00 11.5 10 Este 18 Nordeste 0 -- -- 65
2020-04-01 13:00:00 11.2 10 Nordeste 16 Nordeste 0 -- -- 69
2020-04-01 12:00:00 8.4 6 Nordeste 13 Nordeste 0 -- -- 83
2020-04-01 11:00:00 5.8 0 Calma 14 Sur 0 -- -- 97
2020-04-01 10:00:00 5.5 6 Sudeste 12 Este 0 -- -- 98
2020-04-01 09:00:00 4.9 6 Este 12 Este 0 -- -- 99
2020-04-01 08:00:00 4.8 5 Este 12 Sudeste 0 -- -- 99
2020-04-01 07:00:00 4.7 6 Sudeste 16 Sudeste 0.2 -- -- 98
2020-04-01 06:00:00 4.5 4 Sudeste 13 Sudeste 0.4 -- -- 98
2020-04-01 05:00:00 4.1 5 Este 17 Nordeste 1.4 -- -- 98
2020-04-01 04:00:00 3.7 13 Nordeste 28 Este 4.4 -- -- 97
2020-04-01 03:00:00 4.6 14 Este 30 Este 2.8 -- -- 97
2020-04-01 02:00:00 4.8 9 Sudeste 22 Este 1.2 -- -- 95
2020-04-01 01:00:00 5 11 Este 27 Sudeste 0.2 -- -- 93
2020-04-01 00:00:00 5.3 12 Este 28 Este 0 -- -- 90
2020-03-31 23:00:00 5.2 14 Este 31 Este 0 -- -- 91
2020-03-31 22:00:00 5 13 Este 26 Este 0.2 -- -- 93
2020-03-31 21:00:00 4.8 13 Este 29 Nordeste 0 -- -- 94
2020-03-31 20:00:00 4.7 13 Este 31 Nordeste 0.4 -- -- 94
2020-03-31 19:00:00 4.4 14 Este 31 Este 0.2 -- -- 93
2020-03-31 18:00:00 5 17 Este 34 Este 0.4 -- -- 88
2020-03-31 17:00:00 6.3 18 Este 38 Este 0 -- -- 78
2020-03-31 16:00:00 7.9 18 Este 35 Sudeste 0 -- -- 62
2020-03-31 15:00:00 8.1 18 Este 37 Este 0 -- -- 59
2020-03-31 14:00:00 8.1 16 Este 37 Este 0 -- -- 55
2020-03-31 13:00:00 6.6 14 Este 32 Este 0 -- -- 57
2020-03-31 12:00:00 6.2 13 Este 32 Este 0 -- -- 54
2020-03-31 11:00:00 2.5 10 Nordeste 27 Este 0 -- -- 60
2020-03-31 10:00:00 0.3 6 Nordeste 12 Nordeste 0 -- -- 71
2020-03-31 09:00:00 -1.3 3 Noroeste 7 Nordeste 0 -- -- 78
2020-03-31 08:00:00 -1.7 4 Este 9 Este 0 -- -- 78
2020-03-31 07:00:00 -2.1 2 Nordeste 8 Este 0 -- -- 81
2020-03-31 06:00:00 -1.7 0 Calma 6 Noroeste 0 -- -- 76
2020-03-31 05:00:00 -2.3 3 Noroeste 5 Noroeste 0 -- -- 77
2020-03-31 04:00:00 -2.7 2 Este 6 Norte 0 -- -- 77
2020-03-31 03:00:00 -3 6 Norte 9 Nordeste 0 -- -- 76
2020-03-31 02:00:00 -2.5 6 Nordeste 16 Nordeste 0 -- -- 73
2020-03-31 01:00:00 -2.5 9 Norte 13 Norte 0 -- -- 73
2020-03-31 00:00:00 -2.4 12 Norte 16 Norte 0 -- -- 71
2020-03-30 23:00:00 -1.4 15 Norte 28 Nordeste 0 -- -- 66
2020-03-30 22:00:00 -0.5 24 Norte 36 Norte 0 -- -- 60
2020-03-30 21:00:00 0.7 28 Norte 41 Nordeste 0 -- -- 59
2020-03-30 20:00:00 3.9 27 Nordeste 46 Nordeste 0 -- -- 45
2020-03-30 19:00:00 5.2 30 Nordeste 48 Norte 0 -- -- 43
2020-03-30 18:00:00 6.3 33 Nordeste 48 Norte 0 -- -- 43
2020-03-30 17:00:00 6.7 30 Nordeste 42 Nordeste 0 -- -- 43
2020-03-30 16:00:00 7.6 24 Nordeste 42 Norte 0 -- -- 40
2020-03-30 15:00:00 7.1 29 Nordeste 44 Nordeste 0 -- -- 42
2020-03-30 14:00:00 5.2 30 Nordeste 43 Norte 0 -- -- 49
2020-03-30 13:00:00 5.4 20 Nordeste 37 Nordeste 0 -- -- 47
2020-03-30 12:00:00 3.2 10 Nordeste 24 Nordeste 0 -- -- 57
2020-03-30 11:00:00 2.1 16 Nordeste 28 Nordeste 0 -- -- 62
2020-03-30 10:00:00 1.7 17 Nordeste 30 Nordeste 0 -- -- 66
2020-03-30 09:00:00 1.6 10 Nordeste 27 Nordeste 0 -- -- 73
2020-03-30 08:00:00 1.9 14 Nordeste 27 Nordeste 0 -- -- 69
2020-03-30 07:00:00 2.5 16 Nordeste 42 Norte 0 -- -- 69
2020-03-30 06:00:00 2.8 27 Nordeste 39 Nordeste 0 -- -- 67
2020-03-30 05:00:00 3.7 17 Nordeste 31 Nordeste 0 -- -- 69
2020-03-30 04:00:00 4 16 Nordeste 30 Nordeste 0 -- -- 74
2020-03-30 03:00:00 4.8 0 Calma 10 Norte 0 -- -- 80
2020-03-30 02:00:00 4.3 9 Norte 12 Norte 0 -- -- 82
2020-03-30 01:00:00 4.7 3 Nordeste 5 Este 0 -- -- 79
2020-03-30 00:00:00 4.6 7 Este 12 Nordeste 0 -- -- 78
2020-03-29 23:00:00 5.7 6 Nordeste 19 Nordeste 0 -- -- 72
2020-03-29 22:00:00 6.9 13 Nordeste 27 Nordeste 0 -- -- 69
2020-03-29 21:00:00 8.2 16 Nordeste 36 Nordeste 0 -- -- 64
2020-03-29 20:00:00 10.9 24 Nordeste 33 Nordeste 0 -- -- 55
2020-03-29 19:00:00 15.7 7 Sudeste 21 Sudeste 0 -- -- 32
2020-03-29 18:00:00 17.4 11 Sudeste 23 Sudeste 0 -- -- 29
2020-03-29 17:00:00 17.3 11 Sur 23 Sur 0 -- -- 30
2020-03-29 16:00:00 16.9 9 Sur 20 Sur 0 -- -- 35
2020-03-29 15:00:00 15.8 9 Sur 22 Sudeste 0 -- -- 34
2020-03-29 14:00:00 14.6 7 Sur 15 Sudeste 0 -- -- 38
2020-03-29 13:00:00 12.9 8 Sudeste 16 Sudeste 0 -- -- 46
2020-03-29 12:00:00 11.4 11 Sur 19 Sur 0 -- -- 51
2020-03-29 11:00:00 10.3 8 Sur 13 Sudoeste 0 -- -- 52
2020-03-29 10:00:00 8.3 0 Calma 5 Norte 0 -- -- 61
2020-03-29 09:00:00 3 6 Norte 11 Norte 0 -- -- 74
2020-03-29 08:00:00 0.2 11 Norte 12 Norte 0 -- -- 80
2020-03-29 07:00:00 -0.7 8 Norte 9 Norte 0 -- -- 79
2020-03-29 06:00:00 2 0 Calma 6 Noroeste 0 -- -- 71
2020-03-29 05:00:00 3.2 4 Oeste 8 Oeste 0 -- -- 62
2020-03-29 03:00:00 3.3 3 Nordeste 11 Norte 0 -- -- 60
2020-03-29 01:00:00 5.1 9 Norte 15 Norte 0 -- -- 54
2020-03-29 00:00:00 5.6 10 Norte 12 Norte 0 -- -- 52
2020-03-28 23:00:00 5.3 9 Norte 10 Norte 0 -- -- 53
2020-03-28 22:00:00 7.6 0 Calma 10 Sudoeste 0 -- -- 47
2020-03-28 21:00:00 10.2 8 Sudoeste 11 Sudoeste 0 -- -- 40
2020-03-28 20:00:00 11.4 7 Sur 13 Sur 0 -- -- 39
2020-03-28 19:00:00 13.3 7 Sudeste 16 Sudeste 0 -- -- 34
2020-03-28 18:00:00 15.6 9 Sudeste 20 Sur 0 -- -- 25
2020-03-28 17:00:00 15.8 11 Sur 21 Sur 0 -- -- 27
2020-03-28 16:00:00 16.3 9 Sur 20 Sur 0 -- -- 25
2020-03-28 15:00:00 15.8 5 Este 21 Sur 0 -- -- 27
2020-03-28 14:00:00 15 9 Sur 18 Sur 0 -- -- 29
2020-03-28 13:00:00 13.4 6 Sur 15 Sur 0 -- -- 35
2020-03-28 12:00:00 12.4 6 Sudoeste 13 Sudeste 0 -- -- 42
2020-03-28 11:00:00 12.3 5 Sudeste 21 Sudeste 0 -- -- 44
2020-03-28 10:00:00 10.1 5 Sur 8 Sur 0 -- -- 46
2020-03-28 09:00:00 6 3 Nordeste 6 Nordeste 0 -- -- 63
2020-03-28 08:00:00 -0.5 2 Nordeste 5 Noroeste 0 -- -- 80
2020-03-28 07:00:00 -2.2 0 Calma 6 Noroeste 0 -- -- 84
2020-03-28 06:00:00 -1.6 4 Norte 9 Noroeste 0 -- -- 78
2020-03-28 05:00:00 -0.4 2 Sudoeste 8 Noroeste 0 -- -- 73
2020-03-28 04:00:00 1 7 Norte 9 Noroeste 0 -- -- 67
2020-03-28 03:00:00 -0.5 6 Norte 9 Norte 0 -- -- 72
2020-03-28 02:00:00 2.4 6 Norte 7 Norte 0 -- -- 59
2020-03-28 01:00:00 2.7 4 Norte 8 Norte 0 -- -- 57
2020-03-28 00:00:00 3.5 5 Norte 8 Norte 0 -- -- 53
2020-03-27 23:00:00 3.5 3 Norte 9 Norte 0 -- -- 54
2020-03-27 22:00:00 4.9 7 Norte 10 Nordeste 0 -- -- 50
2020-03-27 21:00:00 6 6 Norte 9 Nordeste 0 -- -- 48
2020-03-27 20:00:00 8.1 4 Este 15 Sudeste 0 -- -- 42
2020-03-27 19:00:00 10.8 12 Sudeste 23 Sudeste 0 -- -- 37
2020-03-27 18:00:00 12.5 12 Sudeste 27 Sur 0 -- -- 33
2020-03-27 17:00:00 12.3 16 Sudeste 31 Sudeste 0 -- -- 31
2020-03-27 16:00:00 11.9 19 Sudeste 31 Sudeste 0 -- -- 33
2020-03-27 15:00:00 11.5 14 Sudeste 37 Sudeste 0 -- -- 35
2020-03-27 14:00:00 11.4 16 Este 32 Este 0 -- -- 37
2020-03-27 13:00:00 9.4 14 Sudeste 26 Sudeste 0 -- -- 38
2020-03-27 12:00:00 8.1 14 Sudeste 31 Este 0 -- -- 42
2020-03-27 11:00:00 7.1 13 Este 28 Este 0 -- -- 46
2020-03-27 10:00:00 5.5 9 Este 18 Este 0 -- -- 52
2020-03-27 09:00:00 3.7 4 Nordeste 7 Nordeste 0 -- -- 64
2020-03-27 08:00:00 -2.3 6 Norte 8 Norte 0 -- -- 91
2020-03-27 07:00:00 -2.9 5 Norte 7 Norte 0 -- -- 89
2020-03-27 06:00:00 -1.4 3 Sudoeste 8 Sudoeste 0 -- -- 84
2020-03-27 05:00:00 -2.3 4 Sudeste 6 Sur 0 -- -- 83
2020-03-27 04:00:00 -0.4 4 Sudeste 11 Norte 0 -- -- 77
2020-03-27 03:00:00 -1 4 Este 13 Sur 0 -- -- 79
2020-03-27 02:00:00 -0.6 4 Este 11 Noroeste 0 -- -- 81
2020-03-27 01:00:00 1 6 Oeste 8 Sudeste 0 -- -- 73
2020-03-27 00:00:00 1.8 5 Nordeste 15 Este 0 -- -- 70
2020-03-26 23:00:00 3.1 5 Este 19 Nordeste 0 -- -- 67
2020-03-26 22:00:00 4.1 18 Nordeste 34 Norte 0 -- -- 65
2020-03-26 21:00:00 5.7 25 Nordeste 33 Nordeste 0 -- -- 60
2020-03-26 20:00:00 8.3 18 Nordeste 30 Nordeste 0 -- -- 51
2020-03-26 19:00:00 13.3 14 Nordeste 30 Nordeste 0 -- -- 40
2020-03-26 18:00:00 16.6 10 Sudeste 22 Sudeste 0 -- -- 30
2020-03-26 17:00:00 18 11 Sudeste 24 Este 0 -- -- 22
2020-03-26 16:00:00 17.6 15 Este 27 Este 0 -- -- 20
2020-03-26 15:00:00 18 11 Este 23 Este 0 -- -- 18
2020-03-26 14:00:00 16.4 9 Sudeste 18 Sudeste 0 -- -- 30
2020-03-26 13:00:00 13.4 7 Sur 15 Sudeste 0 -- -- 36
2020-03-26 12:00:00 10.5 8 Sur 15 Sur 0 -- -- 46
2020-03-26 11:00:00 8 7 Sudeste 15 Sudeste 0 -- -- 56
2020-03-26 10:00:00 6.1 8 Sudeste 13 Sudeste 0 -- -- 64
2020-03-26 09:00:00 5 5 Sudeste 9 Sudeste 0 -- -- 62
2020-03-26 08:00:00 0.1 4 Sur 14 Sudeste 0 -- -- 70
2020-03-26 07:00:00 0.4 5 Sur 9 Sur 0 -- -- 58
2020-03-26 06:00:00 2.6 5 Nordeste 12 Noroeste 0 -- -- 44
2020-03-26 05:00:00 4.5 4 Norte 12 Noroeste 0 -- -- 31
2020-03-26 04:00:00 4 6 Nordeste 17 Noroeste 0 -- -- 37
2020-03-26 03:00:00 5.8 12 Noroeste 28 Noroeste 0 -- -- 34
2020-03-26 02:00:00 6.7 16 Noroeste 26 Noroeste 0 -- -- 33
2020-03-26 01:00:00 3.5 5 Norte 22 Noroeste 0 -- -- 43
2020-03-26 00:00:00 5.9 9 Noroeste 21 Noroeste 0 -- -- 40
2020-03-25 23:00:00 6.5 2 Sudoeste 11 Oeste 0 -- -- 43
2020-03-25 22:00:00 7.7 2 Nordeste 29 Norte 0 -- -- 45
2020-03-25 21:00:00 10.2 14 Norte 37 Norte 0 -- -- 42
2020-03-25 20:00:00 10.9 15 Norte 26 Norte 0 -- -- 36
2020-03-25 19:00:00 15.3 17 Nordeste 34 Nordeste 0 -- -- 26
2020-03-25 18:00:00 15.8 10 Nordeste 27 Nordeste 0 -- -- 27
2020-03-25 17:00:00 20.5 13 Noroeste 33 Noroeste 0 -- -- 31
2020-03-25 16:00:00 18.4 13 Noroeste 28 Noroeste 0 -- -- 35
2020-03-25 15:00:00 19.9 12 Noroeste 31 Noroeste 0 -- -- 35
2020-03-25 14:00:00 18.6 12 Noroeste 30 Norte 0 -- -- 36
2020-03-25 13:00:00 18.6 14 Noroeste 29 Noroeste 0 -- -- 40
2020-03-25 12:00:00 17.1 16 Noroeste 32 Noroeste 0 -- -- 43
2020-03-25 11:00:00 16.2 17 Noroeste 31 Noroeste 0 -- -- 48
2020-03-25 10:00:00 14.7 14 Noroeste 23 Oeste 0 -- -- 54
2020-03-25 09:00:00 11.8 3 Norte 11 Noroeste 0 -- -- 63
2020-03-25 08:00:00 2.5 6 Norte 8 Norte 0 -- -- 93
2020-03-25 07:00:00 1.7 2 Norte 8 Norte 0 -- -- 94
2020-03-25 06:00:00 1.4 8 Norte 8 Norte 0 -- -- 94
2020-03-25 05:00:00 2.7 4 Sudoeste 6 Norte 0 -- -- 95
2020-03-25 04:00:00 1.9 5 Norte 8 Norte 0 -- -- 92
2020-03-25 03:00:00 3.4 0 Calma 8 Noroeste 0 -- -- 90
2020-03-25 02:00:00 4.2 6 Norte 9 Noroeste 0 -- -- 84
2020-03-25 01:00:00 7.3 7 Norte 12 Norte 0 -- -- 75
2020-03-25 00:00:00 7.4 6 Norte 11 Norte 0 -- -- 74
2020-03-24 23:00:00 7.2 9 Norte 11 Norte 0 -- -- 75
2020-03-24 22:00:00 9.3 0 Calma 8 Sudoeste 0 -- -- 66
2020-03-24 21:00:00 10.7 5 Sudoeste 8 Sudoeste 0 -- -- 62
2020-03-24 20:00:00 12 9 Sur 18 Sudeste 0 -- -- 57
2020-03-24 19:00:00 15.5 9 Sur 15 Sur 0 -- -- 48
2020-03-24 18:00:00 17.7 8 Sudeste 20 Sur 0 -- -- 43
2020-03-24 17:00:00 17.6 8 Sur 20 Sudeste 0 -- -- 43
2020-03-24 16:00:00 16.8 11 Sudeste 23 Sur 0 -- -- 43
2020-03-24 15:00:00 15.6 6 Este 21 Sudeste 0 -- -- 49
2020-03-24 14:00:00 15.1 8 Este 22 Sur 0 -- -- 51
2020-03-24 13:00:00 13.6 10 Sudeste 23 Sudeste 0 -- -- 57
2020-03-24 12:00:00 12.3 9 Este 23 Sudeste 0 -- -- 64
2020-03-24 11:00:00 11.8 10 Sudeste 22 Este 0 -- -- 67
2020-03-24 10:00:00 10.6 12 Este 25 Este 0 -- -- 72
2020-03-24 09:00:00 11 12 Este 19 Este 0 -- -- 69
2020-03-24 08:00:00 7.7 9 Nordeste 17 Nordeste 0 -- -- 83
2020-03-24 07:00:00 7.3 8 Nordeste 19 Este 0 -- -- 85
2020-03-24 06:00:00 7.1 9 Nordeste 21 Nordeste 0 -- -- 86
2020-03-24 05:00:00 7.1 10 Nordeste 16 Nordeste 0 -- -- 87
2020-03-24 04:00:00 7.1 9 Nordeste 19 Este 0 -- -- 87
2020-03-24 03:00:00 7.3 8 Nordeste 15 Este 0 -- -- 87
2020-03-24 02:00:00 7.9 6 Nordeste 13 Este 0 -- -- 83
2020-03-24 01:00:00 8.4 6 Este 18 Este 0 -- -- 80
2020-03-24 00:00:00 9.2 9 Sudeste 23 Este 0 -- -- 77
2020-03-23 23:00:00 9.9 10 Sudeste 27 Sudeste 0 -- -- 74
2020-03-23 22:00:00 9.7 5 Este 15 Sudeste 0 -- -- 68
2020-03-23 21:00:00 10.2 7 Sudeste 13 Sudeste 0 -- -- 64
2020-03-23 20:00:00 11.5 5 Sudeste 9 Sudeste 0 -- -- 55
2020-03-23 19:00:00 13.4 8 Sur 15 Sur 0 -- -- 51
2020-03-23 18:00:00 14.8 10 Sudeste 19 Sudeste 0 -- -- 46
2020-03-23 17:00:00 15.4 9 Este 22 Sudeste 0 -- -- 45
2020-03-23 16:00:00 13.6 13 Sudeste 22 Sudeste 0 -- -- 53
2020-03-23 15:00:00 13.8 7 Este 18 Sudeste 0 -- -- 52
2020-03-23 14:00:00 14.3 11 Sudeste 22 Sudeste 0 -- -- 49
2020-03-23 13:00:00 13.7 8 Sudeste 17 Sudeste 0 -- -- 52
2020-03-23 12:00:00 12.2 9 Sur 20 Sur 0 -- -- 62
2020-03-23 11:00:00 11.2 8 Nordeste 16 Este 0 -- -- 64
2020-03-23 10:00:00 9.6 7 Nordeste 15 Nordeste 0 -- -- 67
2020-03-23 09:00:00 9.4 4 Norte 8 Noroeste 0 -- -- 68
2020-03-23 08:00:00 2.7 0 Calma 6 Norte 0 -- -- 89
2020-03-23 07:00:00 2.4 6 Norte 11 Norte 0 -- -- 89
2020-03-23 06:00:00 0.9 6 Norte 7 Nordeste 0 -- -- 93
2020-03-23 05:00:00 2.9 3 Noroeste 7 Norte 0 -- -- 94
2020-03-23 04:00:00 2.3 3 Nordeste 8 Nordeste 0 -- -- 95
2020-03-23 03:00:00 2.8 3 Norte 6 Nordeste 0 -- -- 91
2020-03-23 02:00:00 4.7 2 Sur 5 Noroeste 0 -- -- 89
2020-03-23 01:00:00 5.5 3 Noroeste 10 Noroeste 0 -- -- 84
2020-03-23 00:00:00 5.9 9 Norte 11 Norte 0 -- -- 85
2020-03-22 23:00:00 6.6 6 Nordeste 10 Este 0 -- -- 84
2020-03-22 22:00:00 9.2 8 Este 21 Norte 0 -- -- 72
2020-03-22 21:00:00 8.8 15 Norte 22 Norte 0 -- -- 77
2020-03-22 20:00:00 9.3 10 Norte 21 Noroeste 0 -- -- 76
2020-03-22 19:00:00 10 10 Norte 22 Noroeste 0 -- -- 77
2020-03-22 18:00:00 10.6 12 Nordeste 23 Nordeste 0.2 -- -- 75
2020-03-22 17:00:00 11.6 13 Sudeste 33 Sudeste 0 -- -- 65
2020-03-22 16:00:00 17.2 11 Sur 24 Sudeste 0 -- -- 46
2020-03-22 15:00:00 16.4 12 Sur 28 Sudeste 0 -- -- 47
2020-03-22 14:00:00 16 10 Sudeste 24 Sudeste 0 -- -- 51
2020-03-22 13:00:00 15.8 7 Este 15 Este 0 -- -- 49
2020-03-22 12:00:00 15.2 6 Este 14 Nordeste 0 -- -- 57
2020-03-22 11:00:00 12.8 6 Sur 12 Sudeste 0 -- -- 66
2020-03-22 10:00:00 13.1 4 Norte 8 Norte 0 -- -- 68
2020-03-22 09:00:00 8.2 3 Norte 8 Noroeste 0 -- -- 88
2020-03-22 08:00:00 5.1 2 Oeste 9 Nordeste 0 -- -- 98
2020-03-22 07:00:00 5.3 2 Sudoeste 6 Norte 0 -- -- 98
2020-03-22 06:00:00 5.3 3 Norte 9 Norte 0 -- -- 98
2020-03-22 05:00:00 4.5 4 Nordeste 14 Noroeste 0 -- -- 98
2020-03-22 04:00:00 5.1 7 Norte 13 Norte 0 -- -- 97
2020-03-22 03:00:00 5.5 10 Norte 12 Norte 0 -- -- 97
2020-03-22 02:00:00 6.5 3 Norte 8 Norte 0 -- -- 95
2020-03-22 01:00:00 6.6 3 Sudeste 22 Sudeste 0 -- -- 94
2020-03-22 00:00:00 7.2 8 Norte 12 Norte 0 -- -- 90
2020-03-21 23:00:00 7.5 4 Nordeste 8 Nordeste 0 -- -- 90
2020-03-21 22:00:00 8 4 Norte 6 Norte 0 -- -- 90
2020-03-21 21:00:00 8.7 3 Nordeste 6 Este 0 -- -- 87
2020-03-21 20:00:00 10.3 0 Calma 6 Sudoeste 0 -- -- 79
2020-03-21 19:00:00 11.6 3 Sudoeste 14 Sudoeste 0 -- -- 73
2020-03-21 18:00:00 13 8 Sudoeste 15 Sur 0 -- -- 69
2020-03-21 17:00:00 13.6 8 Sudoeste 14 Sur 0 -- -- 67
2020-03-21 16:00:00 11.9 4 Sudoeste 10 Sudoeste 0 -- -- 72
2020-03-21 15:00:00 11.6 4 Sudoeste 11 Sudeste 0 -- -- 73
2020-03-21 14:00:00 10.6 6 Sudeste 10 Sudeste 0 -- -- 77
2020-03-21 13:00:00 9.7 6 Sudeste 15 Este 0 -- -- 81
2020-03-21 12:00:00 10 8 Este 18 Este 0 -- -- 79
2020-03-21 11:00:00 10 8 Sudeste 20 Este 0 -- -- 83
2020-03-21 10:00:00 9 11 Este 20 Este 0 -- -- 88
2020-03-21 09:00:00 7.6 8 Nordeste 18 Este 0 -- -- 93
2020-03-21 08:00:00 6.7 6 Nordeste 15 Este 0 -- -- 95
2020-03-21 07:00:00 6.7 8 Este 21 Sudeste 0 -- -- 95
2020-03-21 06:00:00 7.1 8 Este 17 Nordeste 0 -- -- 97
2020-03-21 05:00:00 7.4 9 Este 16 Este 0.2 -- -- 99
2020-03-21 04:00:00 8 3 Sudeste 13 Este 0 -- -- 99
2020-03-21 03:00:00 7.9 5 Este 11 Este 0 -- -- 99
2020-03-21 02:00:00 8 6 Nordeste 10 Nordeste 0 -- -- 99
2020-03-21 01:00:00 8 3 Sudeste 10 Este 0 -- -- 98
2020-03-21 00:00:00 7.2 6 Norte 8 Nordeste 0 -- -- 98
2020-03-20 23:00:00 8.2 4 Norte 7 Norte 0 -- -- 98
2020-03-20 22:00:00 8.4 6 Norte 8 Norte 0 -- -- 98
2020-03-20 21:00:00 8.7 4 Norte 5 Nordeste 0 -- -- 97
2020-03-20 20:00:00 8.9 4 Nordeste 6 Sudeste 0 -- -- 96
2020-03-20 19:00:00 9.4 4 Sudeste 9 Sudeste 0 -- -- 93
2020-03-20 18:00:00 9.8 5 Este 13 Sudoeste 0 -- -- 93
2020-03-20 17:00:00 9.1 9 Sudoeste 34 Sur 2.2 -- -- 96
2020-03-20 16:00:00 11.9 17 Sudeste 24 Sur 0 -- -- 71
2020-03-20 15:00:00 13 8 Este 18 Este 0 -- -- 69
2020-03-20 14:00:00 11.3 8 Sudeste 17 Sudeste 0 -- -- 74
2020-03-20 13:00:00 11 8 Sudeste 17 Sudeste 0 -- -- 77
2020-03-20 12:00:00 10.2 8 Este 17 Este 0 -- -- 81
2020-03-20 11:00:00 8.9 8 Sudeste 17 Este 0 -- -- 86
2020-03-20 10:00:00 8.1 7 Este 16 Este 0 -- -- 87
2020-03-20 09:00:00 7.7 4 Nordeste 14 Este 0 -- -- 91
2020-03-20 08:00:00 7 8 Nordeste 15 Este 0 -- -- 91
2020-03-20 07:00:00 6.5 8 Nordeste 13 Norte 0.2 -- -- 93
2020-03-20 06:00:00 6.6 8 Norte 10 Norte 0.2 -- -- 91
2020-03-20 05:00:00 7.4 0 Calma 9 Norte 0 -- -- 81
2020-03-20 04:00:00 7.3 6 Norte 10 Norte 0 -- -- 78
2020-03-20 03:00:00 6.7 8 Norte 12 Norte 0 -- -- 76
2020-03-20 02:00:00 7.3 10 Norte 14 Norte 0 -- -- 75
2020-03-20 01:00:00 8.2 6 Norte 9 Norte 0 -- -- 73
2020-03-20 00:00:00 8.5 5 Norte 6 Norte 0 -- -- 74
2020-03-19 23:00:00 9.4 4 Norte 9 Norte 0 -- -- 69
2020-03-19 22:00:00 9.7 8 Norte 9 Noroeste 0 -- -- 68
2020-03-19 21:00:00 10.6 3 Nordeste 9 Este 0 -- -- 62
2020-03-19 20:00:00 11.2 5 Nordeste 13 Este 0 -- -- 59
2020-03-19 19:00:00 13.4 6 Este 17 Sur 0 -- -- 65
2020-03-19 18:00:00 14.6 12 Sudeste 20 Sudeste 0 -- -- 64
2020-03-19 17:00:00 15.3 15 Sur 23 Sur 0 -- -- 62
2020-03-19 16:00:00 16.4 19 Sur 27 Sur 0 -- -- 62
2020-03-19 15:00:00 17.8 12 Sudeste 21 Sudeste 0 -- -- 55
2020-03-19 14:00:00 17.9 9 Nordeste 16 Este 0 -- -- 52
2020-03-19 13:00:00 16.9 9 Sudeste 15 Sudeste 0 -- -- 57
2020-03-19 12:00:00 16.5 6 Este 14 Este 0 -- -- 58
2020-03-19 11:00:00 15.1 4 Este 10 Este 0 -- -- 62
2020-03-19 10:00:00 13.2 4 Norte 7 Norte 0 -- -- 66
2020-03-19 09:00:00 9.8 6 Norte 10 Noroeste 0 -- -- 81
2020-03-19 08:00:00 6.3 6 Noroeste 8 Noroeste 0 -- -- 90
2020-03-19 07:00:00 6.9 5 Norte 8 Norte 0 -- -- 88
2020-03-19 06:00:00 7.5 6 Norte 8 Norte 0 -- -- 86
2020-03-19 05:00:00 7.8 7 Norte 10 Norte 0 -- -- 84
2020-03-19 04:00:00 7.3 5 Norte 10 Norte 0 -- -- 89
2020-03-19 03:00:00 8.1 3 Nordeste 6 Norte 0 -- -- 85
2020-03-19 02:00:00 9.1 5 Norte 10 Norte 0 -- -- 81
2020-03-19 01:00:00 7.1 7 Norte 8 Norte 0 -- -- 89
2020-03-19 00:00:00 10.2 7 Norte 10 Norte 0 -- -- 77
2020-03-18 23:00:00 10.6 8 Norte 9 Norte 0 -- -- 74
2020-03-18 22:00:00 11.7 3 Norte 4 Norte 0 -- -- 71
2020-03-18 21:00:00 12.5 0 Calma 7 Sur 0 -- -- 68
2020-03-18 20:00:00 14.2 7 Sur 14 Sudeste 0 -- -- 61
2020-03-18 19:00:00 15.8 8 Sudeste 15 Sur 0 -- -- 57
2020-03-18 18:00:00 17.6 9 Sur 19 Sur 0 -- -- 49
2020-03-18 17:00:00 18 12 Sur 22 Sudeste 0 -- -- 50
2020-03-18 16:00:00 18.3 14 Sur 21 Sur 0 -- -- 51
2020-03-18 15:00:00 18.7 8 Sur 15 Sudoeste 0 -- -- 53
2020-03-18 14:00:00 17.8 6 Sur 18 Sur 0 -- -- 58
2020-03-18 13:00:00 16.8 6 Sudeste 16 Sur 0 -- -- 59
2020-03-18 12:00:00 15.3 4 Sur 16 Sudeste 0 -- -- 63
2020-03-18 11:00:00 13.9 5 Este 12 Sur 0 -- -- 65
2020-03-18 10:00:00 12.7 4 Sur 9 Sur 0 -- -- 70
2020-03-18 09:00:00 10.8 0 Calma 4 Oeste 0 -- -- 80
2020-03-18 08:00:00 7.8 3 Noroeste 5 Noroeste 0 -- -- 91
2020-03-18 07:00:00 8.2 3 Norte 8 Noroeste 0 -- -- 88
2020-03-18 06:00:00 8.6 6 Noroeste 8 Noroeste 0 -- -- 88
2020-03-18 05:00:00 8.6 4 Nordeste 10 Este 0 -- -- 88
2020-03-18 04:00:00 8.7 6 Nordeste 11 Norte 0 -- -- 86
2020-03-18 03:00:00 8.7 9 Nordeste 12 Nordeste 0 -- -- 86
2020-03-18 02:00:00 8.6 7 Norte 11 Nordeste 0 -- -- 85
2020-03-18 01:00:00 8.7 4 Norte 9 Norte 0 -- -- 85
2020-03-18 00:00:00 8.3 8 Norte 10 Norte 0 -- -- 86
2020-03-17 23:00:00 8.1 6 Norte 10 Noroeste 0 -- -- 87
2020-03-17 22:00:00 8.1 4 Norte 6 Noroeste 0 -- -- 86
2020-03-17 21:00:00 9.4 4 Sudeste 9 Sudeste 0 -- -- 81
2020-03-17 20:00:00 9.2 3 Nordeste 11 Este 0 -- -- 81
2020-03-17 19:00:00 11.1 6 Este 21 Este 0 -- -- 74
2020-03-17 18:00:00 12.3 10 Este 25 Este 0 -- -- 68
2020-03-17 17:00:00 12.7 13 Sudeste 30 Sudeste 0 -- -- 65
2020-03-17 16:00:00 13.4 15 Este 30 Sudeste 0 -- -- 64
2020-03-17 15:00:00 13.7 12 Sudeste 36 Este 0 -- -- 62
2020-03-17 14:00:00 13.8 12 Este 32 Este 0 -- -- 60
2020-03-17 13:00:00 15.7 17 Este 32 Este 0 -- -- 57
2020-03-17 12:00:00 13.4 15 Sudeste 31 Este 0 -- -- 57
2020-03-17 11:00:00 11.6 4 Sur 8 Este 0 -- -- 60
2020-03-17 10:00:00 9.6 2 Sur 9 Nordeste 0 -- -- 64
2020-03-17 09:00:00 7.9 6 Nordeste 10 Nordeste 0 -- -- 67
2020-03-17 08:00:00 7.7 4 Sudeste 8 Este 0 -- -- 65
2020-03-17 07:00:00 7.2 0 Calma 10 Norte 0 -- -- 66
2020-03-17 06:00:00 7.4 5 Nordeste 15 Norte 0 -- -- 64
2020-03-17 05:00:00 6.6 13 Norte 21 Norte 0 -- -- 65
2020-03-17 04:00:00 6.1 14 Norte 21 Norte 0 -- -- 64
2020-03-17 03:00:00 6 7 Norte 25 Norte 0 -- -- 61
2020-03-17 02:00:00 5.3 7 Norte 19 Norte 0 -- -- 60
2020-03-17 01:00:00 4.7 13 Norte 23 Norte 0 -- -- 59
2020-03-17 00:00:00 6 17 Norte 28 Norte 0 -- -- 51
2020-03-16 23:00:00 6 14 Norte 24 Norte 0 -- -- 49
2020-03-16 22:00:00 5.6 17 Norte 37 Norte 0 -- -- 50
2020-03-16 21:00:00 5 25 Norte 39 Norte 0 -- -- 52
2020-03-16 20:00:00 5.5 26 Norte 44 Norte 0 -- -- 51
2020-03-16 19:00:00 7.5 29 Nordeste 48 Nordeste 0 -- -- 51
2020-03-16 18:00:00 9.2 36 Nordeste 56 Nordeste 0 -- -- 45
2020-03-16 17:00:00 10.7 31 Nordeste 57 Este 0 -- -- 41
2020-03-16 16:00:00 11.8 35 Norte 52 Norte 0 -- -- 41
2020-03-16 15:00:00 10.7 32 Nordeste 53 Norte 0 -- -- 44
2020-03-16 14:00:00 9.8 39 Nordeste 54 Nordeste 0 -- -- 45
2020-03-16 13:00:00 10.3 31 Nordeste 48 Nordeste 0 -- -- 46
2020-03-16 12:00:00 9.4 27 Norte 45 Norte 0 -- -- 46
2020-03-16 11:00:00 8.8 28 Norte 45 Noroeste 0 -- -- 50
2020-03-16 10:00:00 5.4 22 Noroeste 37 Noroeste 0 -- -- 64
2020-03-16 09:00:00 4.9 16 Norte 33 Norte 0 -- -- 62
2020-03-16 08:00:00 1.8 15 Noroeste 28 Noroeste 0 -- -- 76
2020-03-16 07:00:00 2.1 18 Noroeste 32 Noroeste 0 -- -- 74
2020-03-16 06:00:00 1.9 13 Noroeste 32 Noroeste 0 -- -- 78
2020-03-16 05:00:00 2 18 Noroeste 35 Noroeste 0 -- -- 78
2020-03-16 04:00:00 2 14 Noroeste 28 Noroeste 0 -- -- 80
2020-03-16 03:00:00 2 13 Noroeste 24 Noroeste 0 -- -- 81
2020-03-16 02:00:00 1.9 12 Noroeste 23 Noroeste 0 -- -- 82
2020-03-16 01:00:00 1.6 19 Noroeste 32 Noroeste 0 -- -- 84
2020-03-16 00:00:00 1.4 11 Noroeste 25 Norte 0 -- -- 87
2020-03-15 23:00:00 1.1 16 Noroeste 29 Norte 0.4 -- -- 91
2020-03-15 22:00:00 1.4 9 Noroeste 31 Norte 0.6 -- -- 91
2020-03-15 21:00:00 1.1 19 Noroeste 39 Noroeste 0.4 -- -- 91
2020-03-15 20:00:00 2.3 29 Noroeste 47 Norte 0 -- -- 85
2020-03-15 19:00:00 4.3 30 Oeste 50 Noroeste 0 -- -- 73
2020-03-15 18:00:00 8.7 24 Oeste 42 Noroeste 0 -- -- 67
2020-03-15 17:00:00 15.5 15 Sudoeste 30 Noroeste 0 -- -- 34
2020-03-15 16:00:00 15.5 14 Noroeste 30 Oeste 0 -- -- 41
2020-03-15 15:00:00 12.6 17 Noroeste 31 Norte 0 -- -- 54
2020-03-15 14:00:00 15.3 17 Noroeste 33 Norte 0 -- -- 44
2020-03-15 13:00:00 15.4 7 Norte 15 Este 0 -- -- 46
2020-03-15 12:00:00 12.9 6 Sudeste 15 Sudeste 0 -- -- 49
2020-03-15 11:00:00 10.6 10 Sudeste 15 Sudeste 0 -- -- 57
2020-03-15 10:00:00 9.4 2 Sur 7 Sur 0 -- -- 64
2020-03-15 09:00:00 5.4 4 Norte 6 Norte 0 -- -- 72
2020-03-15 08:00:00 -1 2 Noroeste 8 Norte 0 -- -- 93
2020-03-15 07:00:00 -0.6 4 Norte 6 Norte 0 -- -- 90
2020-03-15 06:00:00 0.1 0 Calma 8 Nordeste 0 -- -- 87
2020-03-15 05:00:00 1.2 0 Calma 8 Norte 0 -- -- 87
2020-03-15 04:00:00 1.6 3 Noroeste 6 Noroeste 0 -- -- 84
2020-03-15 03:00:00 3.1 4 Norte 7 Norte 0 -- -- 77
2020-03-15 02:00:00 4.6 3 Noroeste 8 Norte 0 -- -- 72
2020-03-15 01:00:00 5.9 7 Norte 11 Norte 0 -- -- 66
2020-03-15 00:00:00 7 9 Norte 12 Norte 0 -- -- 63
2020-03-14 23:00:00 6.7 8 Norte 9 Norte 0 -- -- 64
2020-03-14 22:00:00 7.8 5 Norte 6 Nordeste 0 -- -- 62
2020-03-14 21:00:00 10.6 0 Calma 5 Sudoeste 0 -- -- 50
2020-03-14 20:00:00 12.4 3 Sur 14 Sudeste 0 -- -- 48
2020-03-14 19:00:00 15.9 10 Sudeste 18 Sur 0 -- -- 40
2020-03-14 18:00:00 17.4 14 Sur 23 Sudeste 0 -- -- 37
2020-03-14 17:00:00 17.9 13 Sur 24 Sur 0 -- -- 40
2020-03-14 16:00:00 17.8 13 Sur 23 Sur 0 -- -- 39
2020-03-14 15:00:00 16.9 14 Sur 23 Sur 0 -- -- 41
2020-03-14 14:00:00 15.6 13 Sur 21 Sur 0 -- -- 50
2020-03-14 13:00:00 13.9 9 Sur 17 Sur 0 -- -- 51
2020-03-14 12:00:00 12.1 8 Sudeste 13 Sur 0 -- -- 58
2020-03-14 11:00:00 10 7 Sur 12 Sur 0 -- -- 69
2020-03-14 10:00:00 9.3 2 Sudeste 6 Norte 0 -- -- 76
2020-03-14 09:00:00 4.7 0 Calma 8 Norte 0 -- -- 94
2020-03-14 08:00:00 1.3 6 Norte 11 Norte 0 -- -- 99
2020-03-14 07:00:00 0.5 4 Norte 5 Norte 0 -- -- 98
2020-03-14 06:00:00 2.7 4 Norte 8 Norte 0 -- -- 99
2020-03-14 05:00:00 3.1 6 Norte 7 Norte 0 -- -- 99
2020-03-14 04:00:00 2.5 6 Norte 7 Norte 0 -- -- 98
2020-03-14 03:00:00 2.5 2 Norte 9 Norte 0 -- -- 97
2020-03-14 02:00:00 2.3 6 Norte 9 Norte 0 -- -- 95
2020-03-14 01:00:00 4.5 0 Calma 5 Sudoeste 0 -- -- 94
2020-03-14 00:00:00 6 3 Sudoeste 5 Sudoeste 0 -- -- 88
2020-03-13 23:00:00 6.8 3 Sur 11 Sudoeste 0 -- -- 84
2020-03-13 22:00:00 8.2 9 Sur 14 Sur 0 -- -- 80
2020-03-13 21:00:00 8.9 6 Sur 15 Sudeste 0 -- -- 76
2020-03-13 20:00:00 12 5 Sur 15 Sur 0 -- -- 65
2020-03-13 19:00:00 14.9 8 Sur 17 Sur 0 -- -- 58
2020-03-13 18:00:00 16.3 12 Sur 19 Sur 0 -- -- 54
2020-03-13 17:00:00 17 7 Sur 13 Sur 0 -- -- 52
2020-03-13 16:00:00 15.9 9 Sur 19 Sudeste 0 -- -- 55
2020-03-13 15:00:00 14.7 7 Sur 14 Sur 0 -- -- 57
2020-03-13 14:00:00 14.3 6 Sur 17 Sur 0 -- -- 59
2020-03-13 13:00:00 11.8 6 Sur 13 Sudeste 0 -- -- 65
2020-03-13 12:00:00 11.5 4 Sur 10 Sudoeste 0 -- -- 65
2020-03-13 11:00:00 9.8 4 Nordeste 8 Oeste 0 -- -- 70
2020-03-13 10:00:00 8.6 3 Sur 10 Sur 0 -- -- 79
2020-03-13 09:00:00 7.6 6 Sudoeste 12 Sur 0 -- -- 84
2020-03-13 08:00:00 7.1 8 Sur 11 Sur 0 -- -- 87
2020-03-13 07:00:00 7.3 5 Sur 9 Sur 0 -- -- 87
2020-03-13 06:00:00 7.4 5 Sur 13 Sur 0 -- -- 86
2020-03-13 05:00:00 7.9 7 Sudeste 9 Sudeste 0 -- -- 87
2020-03-13 04:00:00 8.2 3 Sur 7 Sur 0 -- -- 85
2020-03-13 03:00:00 8.3 3 Sudoeste 11 Sur 0 -- -- 85
2020-03-13 02:00:00 8.1 8 Sudoeste 12 Sudoeste 0 -- -- 81
2020-03-13 01:00:00 8 5 Sudoeste 12 Sudeste 0 -- -- 84
2020-03-13 00:00:00 9.7 8 Sudeste 13 Sudeste 0 -- -- 74
2020-03-12 23:00:00 10.7 5 Sudeste 10 Sudeste 0 -- -- 81
2020-03-12 22:00:00 10.6 4 Sudeste 17 Nordeste 0 -- -- 83
2020-03-12 21:00:00 12.3 11 Nordeste 21 Nordeste 0 -- -- 77
2020-03-12 20:00:00 13.4 11 Norte 17 Nordeste 0 -- -- 72
2020-03-12 19:00:00 15.3 12 Norte 18 Norte 0 -- -- 62
2020-03-12 18:00:00 17.8 10 Norte 18 Norte 0 -- -- 55
2020-03-12 17:00:00 19 3 Nordeste 10 Norte 0 -- -- 51
2020-03-12 16:00:00 20.3 3 Nordeste 9 Este 0 -- -- 46
2020-03-12 15:00:00 19.2 4 Sur 14 Sur 0 -- -- 48
2020-03-12 14:00:00 20.6 9 Sur 17 Sur 0 -- -- 44
2020-03-12 13:00:00 19.5 7 Sur 14 Sudeste 0 -- -- 49
2020-03-12 12:00:00 18.1 3 Nordeste 8 Sudoeste 0 -- -- 53
2020-03-12 11:00:00 13.5 2 Nordeste 6 Norte 0 -- -- 69
2020-03-12 10:00:00 10.9 2 Nordeste 6 Sudoeste 0 -- -- 78
2020-03-12 09:00:00 10.2 6 Norte 9 Norte 0 -- -- 74
2020-03-12 08:00:00 7.1 4 Norte 6 Nordeste 0 -- -- 86
2020-03-12 07:00:00 8.1 4 Nordeste 9 Noroeste 0 -- -- 81
2020-03-12 06:00:00 8.3 2 Nordeste 6 Norte 0 -- -- 81
2020-03-12 05:00:00 9 5 Sudoeste 7 Sudoeste 0 -- -- 78
2020-03-12 04:00:00 8.9 4 Norte 9 Norte 0 -- -- 78
2020-03-12 03:00:00 8.7 4 Norte 8 Norte 0 -- -- 80
2020-03-12 02:00:00 9.7 5 Norte 7 Norte 0 -- -- 75
2020-03-12 01:00:00 11.1 2 Sur 6 Este 0 -- -- 72
2020-03-12 00:00:00 11.6 3 Este 8 Norte 0 -- -- 71
2020-03-11 23:00:00 11 7 Norte 9 Norte 0 -- -- 74
2020-03-11 22:00:00 12.5 2 Sudoeste 16 Noroeste 0 -- -- 67
2020-03-11 21:00:00 16.8 10 Noroeste 15 Noroeste 0 -- -- 52
2020-03-11 20:00:00 16.5 4 Oeste 8 Oeste 0 -- -- 54
2020-03-11 19:00:00 19.3 6 Nordeste 8 Nordeste 0 -- -- 47
2020-03-11 18:00:00 23.2 7 Este 14 Este 0 -- -- 38
2020-03-11 17:00:00 23.9 6 Nordeste 15 Sudeste 0 -- -- 35
2020-03-11 16:00:00 21.9 7 Sur 14 Sur 0 -- -- 39
2020-03-11 15:00:00 21 5 Sudeste 17 Sudeste 0 -- -- 43
2020-03-11 14:00:00 19.4 4 Sur 14 Sudeste 0 -- -- 43
2020-03-11 13:00:00 17.3 7 Sur 15 Sur 0 -- -- 48
2020-03-11 12:00:00 16.1 8 Sur 14 Sur 0 -- -- 52
2020-03-11 11:00:00 14.1 6 Sur 11 Sur 0 -- -- 56
2020-03-11 10:00:00 12.7 4 Sur 9 Sudeste 0 -- -- 58
2020-03-11 09:00:00 10.9 3 Norte 5 Norte 0 -- -- 67
2020-03-11 08:00:00 4.7 4 Norte 8 Sur 0 -- -- 87
2020-03-11 07:00:00 7 3 Oeste 6 Sudoeste 0 -- -- 78
2020-03-11 06:00:00 8.6 5 Noroeste 14 Noroeste 0 -- -- 75
2020-03-11 05:00:00 8.8 9 Noroeste 15 Noroeste 0 -- -- 72
2020-03-11 04:00:00 9.8 12 Noroeste 14 Noroeste 0 -- -- 69
2020-03-11 03:00:00 10 9 Noroeste 14 Noroeste 0 -- -- 66
2020-03-11 02:00:00 9.8 8 Noroeste 17 Noroeste 0 -- -- 68
2020-03-11 01:00:00 9.9 8 Noroeste 18 Norte 0 -- -- 69
2020-03-11 00:00:00 10.7 9 Noroeste 21 Noroeste 0 -- -- 64
2020-03-10 23:00:00 12.7 15 Noroeste 19 Noroeste 0 -- -- 52
2020-03-10 22:00:00 11.8 12 Noroeste 19 Noroeste 0 -- -- 47
2020-03-10 21:00:00 13.1 11 Noroeste 20 Noroeste 0 -- -- 39
2020-03-10 20:00:00 16.5 15 Noroeste 24 Noroeste 0 -- -- 28
2020-03-10 19:00:00 18.4 13 Noroeste 22 Noroeste 0 -- -- 24
2020-03-10 18:00:00 21.3 13 Oeste 23 Noroeste 0 -- -- 21
2020-03-10 17:00:00 23.2 10 Noroeste 18 Noroeste 0 -- -- 20
2020-03-10 16:00:00 21.2 9 Sur 19 Sudeste 0 -- -- 35
2020-03-10 15:00:00 20.2 13 Sur 20 Sur 0 -- -- 36
2020-03-10 14:00:00 19.2 8 Sur 15 Sur 0 -- -- 42
2020-03-10 13:00:00 16.7 8 Sur 15 Sudeste 0 -- -- 49
2020-03-10 12:00:00 16.5 5 Sur 12 Sudeste 0 -- -- 48
2020-03-10 11:00:00 13.6 4 Sur 13 Sur 0 -- -- 53
2020-03-10 10:00:00 11.4 4 Sur 8 Sudoeste 0 -- -- 59
2020-03-10 09:00:00 8.5 3 Sudoeste 5 Oeste 0 -- -- 70
2020-03-10 08:00:00 5.5 2 Sudoeste 8 Norte 0 -- -- 75
2020-03-10 07:00:00 5.3 0 Calma 7 Sudoeste 0 -- -- 75
2020-03-10 06:00:00 6.1 3 Sudoeste 8 Sudoeste 0 -- -- 73
2020-03-10 05:00:00 6.5 4 Este 8 Sur 0 -- -- 69
2020-03-10 04:00:00 8.4 2 Noroeste 10 Norte 0 -- -- 55
2020-03-10 03:00:00 7 6 Norte 13 Noroeste 0 -- -- 64
2020-03-10 02:00:00 7.6 7 Noroeste 26 Noroeste 0 -- -- 63
2020-03-10 01:00:00 10.2 18 Noroeste 32 Oeste 0 -- -- 55
2020-03-10 00:00:00 7.1 8 Norte 14 Noroeste 0 -- -- 68
2020-03-09 23:00:00 7.2 7 Norte 9 Nordeste 0 -- -- 71
2020-03-09 22:00:00 8.1 6 Norte 15 Noroeste 0 -- -- 65
2020-03-09 21:00:00 9.4 7 Noroeste 19 Noroeste 0 -- -- 58
2020-03-09 20:00:00 10.4 3 Oeste 18 Noroeste 0 -- -- 53
2020-03-09 19:00:00 12.4 7 Noroeste 26 Noroeste 0 -- -- 47
2020-03-09 18:00:00 15.6 8 Noroeste 26 Noroeste 0 -- -- 39
2020-03-09 17:00:00 15.6 18 Noroeste 29 Noroeste 0 -- -- 38
2020-03-09 16:00:00 15.6 15 Noroeste 33 Norte 0 -- -- 36
2020-03-09 15:00:00 16.5 14 Noroeste 30 Noroeste 0 -- -- 32
2020-03-09 14:00:00 15.4 12 Noroeste 26 Noroeste 0 -- -- 37
2020-03-09 13:00:00 13.6 10 Noroeste 26 Noroeste 0 -- -- 40
2020-03-09 12:00:00 13.3 11 Noroeste 29 Noroeste 0 -- -- 42
2020-03-09 11:00:00 10 13 Oeste 24 Noroeste 0 -- -- 55
2020-03-09 10:00:00 8.8 12 Noroeste 24 Oeste 0 -- -- 61
2020-03-09 09:00:00 7.1 4 Noroeste 10 Nordeste 0 -- -- 69
2020-03-09 08:00:00 3.2 6 Noroeste 19 Noroeste 0 -- -- 80
2020-03-09 07:00:00 3.3 8 Noroeste 20 Oeste 0 -- -- 81
2020-03-09 06:00:00 4.1 12 Noroeste 21 Oeste 0 -- -- 77
2020-03-09 05:00:00 4 9 Oeste 15 Oeste 0 -- -- 81
2020-03-09 04:00:00 5 8 Oeste 14 Sudeste 0 -- -- 76
2020-03-09 03:00:00 4.4 4 Sudeste 22 Oeste 0 -- -- 78
2020-03-09 02:00:00 5.6 7 Oeste 30 Oeste 0 -- -- 69
2020-03-09 01:00:00 6.1 15 Noroeste 41 Noroeste 0 -- -- 71
2020-03-09 00:00:00 6.3 17 Noroeste 31 Noroeste 0 -- -- 66
2020-03-08 23:00:00 6.5 16 Noroeste 37 Noroeste 0 -- -- 70
2020-03-08 22:00:00 7.2 19 Noroeste 39 Noroeste 0 -- -- 65
2020-03-08 21:00:00 7.9 20 Noroeste 39 Oeste 0 -- -- 69
2020-03-08 20:00:00 8.8 12 Oeste 35 Oeste 0 -- -- 72
2020-03-08 19:00:00 9.8 16 Oeste 35 Oeste 0 -- -- 65
2020-03-08 18:00:00 11 17 Oeste 42 Oeste 0 -- -- 64
2020-03-08 17:00:00 13.4 18 Oeste 37 Oeste 0 -- -- 58
2020-03-08 16:00:00 13.7 20 Oeste 37 Oeste 0 -- -- 59
2020-03-08 15:00:00 12.1 19 Noroeste 37 Oeste 0 -- -- 70
2020-03-08 14:00:00 12.9 16 Noroeste 32 Oeste 0 -- -- 69
2020-03-08 13:00:00 12.8 13 Noroeste 24 Oeste 0 -- -- 71
2020-03-08 12:00:00 8.7 6 Nordeste 20 Noroeste 0 -- -- 78
2020-03-08 11:00:00 9.3 15 Noroeste 30 Noroeste 0 -- -- 77
2020-03-08 10:00:00 8.9 10 Noroeste 20 Noroeste 0 -- -- 73
2020-03-08 09:00:00 7.8 0 Calma 5 Oeste 0 -- -- 69
2020-03-08 08:00:00 5.2 3 Noroeste 19 Noroeste 0 -- -- 79
2020-03-08 07:00:00 4.7 12 Noroeste 18 Norte 0 -- -- 87
2020-03-08 06:00:00 3.9 0 Calma 17 Noroeste 0 -- -- 87
2020-03-08 05:00:00 3 5 Sudoeste 10 Norte 0 -- -- 90
2020-03-08 04:00:00 3.2 4 Noroeste 11 Norte 0 -- -- 92
2020-03-08 03:00:00 2.1 0 Calma 10 Norte 0 -- -- 96
2020-03-08 02:00:00 3.3 2 Sudeste 7 Sudeste 0 -- -- 91
2020-03-08 01:00:00 3 3 Nordeste 15 Oeste 0 -- -- 91
2020-03-08 00:00:00 4.7 5 Noroeste 10 Noroeste 0 -- -- 87
2020-03-07 23:00:00 5.3 5 Noroeste 18 Noroeste 0 -- -- 82
2020-03-07 22:00:00 7.3 9 Noroeste 15 Noroeste 0 -- -- 68
2020-03-07 21:00:00 7.1 6 Norte 16 Noroeste 0 -- -- 69
2020-03-07 20:00:00 8.3 8 Norte 17 Norte 0 -- -- 72
2020-03-07 19:00:00 12.5 10 Norte 22 Norte 0 -- -- 58
2020-03-07 18:00:00 17.4 9 Norte 12 Este 0 -- -- 42
2020-03-07 17:00:00 18.2 6 Nordeste 14 Nordeste 0 -- -- 39
2020-03-07 16:00:00 17.2 6 Nordeste 15 Nordeste 0 -- -- 41
2020-03-07 15:00:00 16 6 Este 15 Sudeste 0 -- -- 46
2020-03-07 14:00:00 13.7 10 Sudoeste 26 Sur 0 -- -- 50
2020-03-07 13:00:00 11.5 11 Sudeste 21 Sur 0 -- -- 59
2020-03-07 12:00:00 11.4 4 Este 21 Norte 0 -- -- 57
2020-03-07 11:00:00 9.5 14 Norte 33 Norte 0 -- -- 68
2020-03-07 10:00:00 7.2 20 Norte 32 Noroeste 0 -- -- 73
2020-03-07 09:00:00 5.9 12 Noroeste 23 Noroeste 0 -- -- 73
2020-03-07 08:00:00 4.7 14 Noroeste 27 Noroeste 0 -- -- 79
2020-03-07 07:00:00 3.7 7 Oeste 20 Oeste 0 -- -- 90
2020-03-07 06:00:00 2.7 3 Nordeste 9 Sudeste 0 -- -- 92
2020-03-07 05:00:00 3.2 4 Sudeste 23 Noroeste 0 -- -- 86
2020-03-07 04:00:00 4.2 12 Noroeste 21 Noroeste 0 -- -- 83
2020-03-07 03:00:00 3.3 5 Este 21 Noroeste 0 -- -- 87
2020-03-07 02:00:00 4.1 10 Noroeste 25 Noroeste 0 -- -- 82
2020-03-07 01:00:00 3.5 12 Noroeste 21 Noroeste 0 -- -- 83
2020-03-07 00:00:00 3.7 13 Oeste 26 Noroeste 0 -- -- 78
2020-03-06 23:00:00 3.5 12 Noroeste 24 Noroeste 0 -- -- 73
2020-03-06 22:00:00 3.5 15 Noroeste 28 Oeste 0 -- -- 66
2020-03-06 21:00:00 3.9 17 Noroeste 41 Oeste 0 -- -- 61
2020-03-06 20:00:00 4.4 14 Oeste 28 Noroeste 0 -- -- 62
2020-03-06 19:00:00 5.5 18 Noroeste 40 Noroeste 0 -- -- 60
2020-03-06 18:00:00 6.9 22 Noroeste 44 Noroeste 0 -- -- 52
2020-03-06 17:00:00 8.1 29 Noroeste 60 Noroeste 0 -- -- 59
2020-03-06 16:00:00 7.9 39 Noroeste 63 Noroeste 0 -- -- 50
2020-03-06 15:00:00 7.5 26 Noroeste 51 Oeste 0 -- -- 62
2020-03-06 14:00:00 6.3 14 Oeste 54 Norte 0 -- -- 66
2020-03-06 13:00:00 7.1 30 Noroeste 55 Noroeste 0 -- -- 57
2020-03-06 12:00:00 6.4 19 Noroeste 41 Noroeste 0 -- -- 68
2020-03-06 11:00:00 4.7 20 Noroeste 45 Noroeste 0 -- -- 76
2020-03-06 10:00:00 4.7 27 Noroeste 58 Noroeste 0 -- -- 75
2020-03-06 09:00:00 2.8 23 Noroeste 44 Noroeste 0 -- -- 81
2020-03-06 08:00:00 2.3 21 Noroeste 45 Oeste 0 -- -- 80
2020-03-06 07:00:00 1.5 8 Oeste 31 Noroeste 0.2 -- -- 93
2020-03-06 06:00:00 2.4 22 Noroeste 45 Noroeste 0 -- -- 81
2020-03-06 05:00:00 2.6 15 Noroeste 40 Noroeste 0 -- -- 82
2020-03-06 04:00:00 2.4 19 Noroeste 38 Oeste 0.2 -- -- 85
2020-03-06 03:00:00 2.8 16 Oeste 34 Oeste 0 -- -- 89
2020-03-06 02:00:00 3 12 Oeste 21 Oeste 0.2 -- -- 88
2020-03-06 01:00:00 3.3 14 Oeste 23 Oeste 0.4 -- -- 91
2020-03-06 00:00:00 3.4 7 Sudoeste 18 Oeste 0 -- -- 90
2020-03-05 23:00:00 3.3 10 Noroeste 23 Noroeste 0.2 -- -- 89
2020-03-05 22:00:00 3.8 9 Noroeste 27 Oeste 0 -- -- 86
2020-03-05 21:00:00 4 19 Noroeste 39 Oeste 0 -- -- 85
2020-03-05 20:00:00 4.5 17 Noroeste 30 Noroeste 0 -- -- 81
2020-03-05 19:00:00 5.3 12 Noroeste 31 Noroeste 0.2 -- -- 83
2020-03-05 18:00:00 8.8 15 Noroeste 36 Noroeste 0 -- -- 64
2020-03-05 17:00:00 8.6 16 Noroeste 37 Noroeste 0.2 -- -- 71
2020-03-05 16:00:00 9.3 20 Noroeste 38 Noroeste 0 -- -- 70
2020-03-05 15:00:00 9.3 20 Noroeste 52 Oeste 0 -- -- 73
2020-03-05 14:00:00 11 26 Oeste 50 Oeste 0 -- -- 66
2020-03-05 13:00:00 10.5 24 Noroeste 58 Oeste 0 -- -- 68
2020-03-05 12:00:00 9.6 29 Oeste 56 Oeste 0 -- -- 71
2020-03-05 11:00:00 8.9 27 Oeste 52 Oeste 0 -- -- 67
2020-03-05 10:00:00 7.3 26 Oeste 49 Oeste 0 -- -- 78
2020-03-05 09:00:00 6.6 20 Oeste 50 Oeste 0 -- -- 81
2020-03-05 08:00:00 6.7 19 Oeste 43 Noroeste 0.2 -- -- 83
2020-03-05 07:00:00 8.1 26 Oeste 48 Oeste 0.8 -- -- 86
2020-03-05 06:00:00 9.3 18 Sur 31 Sur 0 -- -- 91
2020-03-05 05:00:00 9.7 18 Sur 27 Sur 0 -- -- 89
2020-03-05 04:00:00 11.2 15 Sudoeste 28 Sudoeste 0 -- -- 77
2020-03-05 03:00:00 9.6 3 Sudoeste 7 Oeste 0 -- -- 94
2020-03-05 02:00:00 9.8 5 Sur 10 Sur 0 -- -- 94
2020-03-05 01:00:00 9.5 5 Nordeste 6 Noroeste 0 -- -- 93
2020-03-05 00:00:00 9.9 3 Este 8 Sudeste 0 -- -- 90
2020-03-04 23:00:00 10 4 Sur 12 Este 0 -- -- 89
2020-03-04 22:00:00 10.4 5 Nordeste 11 Sudeste 0 -- -- 84
2020-03-04 21:00:00 11.2 6 Sudeste 12 Oeste 0 -- -- 80
2020-03-04 20:00:00 11.7 9 Noroeste 19 Noroeste 0 -- -- 75
2020-03-04 19:00:00 11.8 10 Noroeste 19 Noroeste 0 -- -- 75
2020-03-04 18:00:00 14.1 9 Noroeste 24 Oeste 0 -- -- 66
2020-03-04 17:00:00 13.3 15 Noroeste 37 Oeste 0 -- -- 68
2020-03-04 16:00:00 13.9 22 Noroeste 41 Noroeste 0 -- -- 65
2020-03-04 15:00:00 15.7 21 Noroeste 44 Oeste 0 -- -- 64
2020-03-04 14:00:00 14.2 16 Noroeste 32 Noroeste 0 -- -- 69
2020-03-04 13:00:00 12.7 10 Oeste 35 Oeste 0 -- -- 75
2020-03-04 12:00:00 11.4 14 Oeste 26 Oeste 0 -- -- 79
2020-03-04 11:00:00 10.9 16 Oeste 33 Oeste 0 -- -- 81
2020-03-04 10:00:00 11.2 14 Oeste 26 Sudoeste 0 -- -- 76
2020-03-04 09:00:00 9.9 13 Oeste 35 Oeste 0 -- -- 80
2020-03-04 08:00:00 9.9 16 Oeste 35 Oeste 0 -- -- 80
2020-03-04 07:00:00 9.8 11 Sudoeste 25 Sudoeste 0 -- -- 84
2020-03-04 06:00:00 10.2 14 Oeste 33 Sudoeste 0 -- -- 82
2020-03-04 05:00:00 10.3 15 Oeste 29 Oeste 0 -- -- 82
2020-03-04 04:00:00 11 16 Oeste 38 Oeste 0 -- -- 82
2020-03-04 03:00:00 10.6 19 Oeste 39 Oeste 0 -- -- 88
2020-03-04 02:00:00 10.8 19 Oeste 36 Oeste 0 -- -- 86
2020-03-04 01:00:00 11.1 21 Oeste 36 Sudoeste 0 -- -- 82
2020-03-04 00:00:00 10.6 13 Sudoeste 35 Sudoeste 0 -- -- 84
2020-03-03 23:00:00 8.7 4 Norte 27 Noroeste 0 -- -- 86
2020-03-03 22:00:00 8.1 3 Nordeste 28 Oeste 0 -- -- 84
2020-03-03 21:00:00 8.9 14 Noroeste 35 Noroeste 0 -- -- 71
2020-03-03 20:00:00 9.5 17 Noroeste 37 Noroeste 0 -- -- 66
2020-03-03 19:00:00 10.2 18 Noroeste 43 Noroeste 0 -- -- 66
2020-03-03 18:00:00 11.1 27 Oeste 52 Noroeste 0 -- -- 67
2020-03-03 17:00:00 12.5 26 Noroeste 49 Noroeste 0 -- -- 62
2020-03-03 16:00:00 14.7 21 Noroeste 50 Noroeste 0 -- -- 59
2020-03-03 15:00:00 14.7 28 Noroeste 52 Oeste 0 -- -- 62
2020-03-03 14:00:00 14.9 33 Oeste 54 Noroeste 0 -- -- 63
2020-03-03 13:00:00 14.6 29 Oeste 56 Oeste 0 -- -- 68
2020-03-03 12:00:00 14.1 29 Oeste 53 Oeste 0 -- -- 73
2020-03-03 11:00:00 11.9 29 Oeste 47 Oeste 0.2 -- -- 85
2020-03-03 10:00:00 8.7 17 Noroeste 31 Oeste 1.6 -- -- 94
2020-03-03 09:00:00 7.2 11 Oeste 26 Oeste 0.8 -- -- 96
2020-03-03 08:00:00 4.4 4 Sudoeste 13 Sur 0.4 -- -- 95
2020-03-03 07:00:00 4.3 4 Sudoeste 19 Noroeste 0.4 -- -- 94
2020-03-03 06:00:00 4.2 7 Noroeste 14 Oeste 0.4 -- -- 93
2020-03-03 05:00:00 3.2 6 Este 12 Sudeste 0.2 -- -- 94
2020-03-03 04:00:00 3.3 5 Sudeste 21 Oeste 0.2 -- -- 89
2020-03-03 03:00:00 5.2 14 Oeste 37 Sudoeste 0 -- -- 78
2020-03-03 02:00:00 4.9 19 Oeste 36 Oeste 0 -- -- 77
2020-03-03 01:00:00 4.5 17 Oeste 41 Oeste 0 -- -- 80
2020-03-03 00:00:00 3.7 14 Oeste 29 Sudoeste 0 -- -- 84